LRCL/CLJ METAR and TAF weather

Enter ICAO airport designator
Station Type Date Time Source
LRCL METAR 2021/05/13 05:00 UTC NOAA

LRCL 130500Z 08005KT 9999 BKN008 OVC068 13/12 Q1005 R07/29//95


Station Type Date Time Source
LRCL Decoded METAR 2021/05/13 05:00 UTC NOAA

Cluj-Napoca, Romania (LRCL) 46-47N 023-34E 413M
May 13, 2021 - 01:00 AM EDT / 2021.05.13 0500 UTC
Wind: from the E (080 degrees) at 6 MPH (5 KT):0
Visibility: greater than 7 mile(s):0
Sky conditions: overcast
Temperature: 55 F (13 C)
Dew Point: 53 F (12 C)
Relative Humidity: 93%
Pressure (altimeter): 29.68 in. Hg (1005 hPa)
ob: LRCL 130500Z 08005KT 9999 BKN008 OVC068 13/12 Q1005 R07/29//95
cycle: 5

Station Type Date Time Source
LRCL TAF 2007/05/23 16:57 UTC NOAA

TAF
AMD LRCL 231657Z 231607 VRB02MPS 9999 SCT030 BKN080
TEMPO 1719 VRB15G20MPS 1500 TSRAGR SCT010 BKN020CB OVC080

Example: see airport list